sensor_id;sensor_type;location;lat;lon;timestamp;temperature;humidity
23591;DHT22;11973;52.098;7.582;2023-05-10T03:45:52;13.60;99.90
23591;DHT22;11973;52.098;7.582;2023-05-10T03:48:18;13.60;99.90
23591;DHT22;11973;52.098;7.582;2023-05-10T03:50:44;13.60;99.90
23591;DHT22;11973;52.098;7.582;2023-05-10T03:53:10;13.50;99.90
23591;DHT22;11973;52.098;7.582;2023-05-10T03:55:35;13.50;99.90
23591;DHT22;11973;52.098;7.582;2023-05-10T03:58:02;13.60;99.90
23591;DHT22;11973;52.098;7.582;2023-05-10T04:00:27;13.50;99.90
23591;DHT22;11973;52.098;7.582;2023-05-10T04:02:54;13.50;99.90
23591;DHT22;11973;52.098;7.582;2023-05-10T04:05:20;13.50;99.90
23591;DHT22;11973;52.098;7.582;2023-05-10T04:07:46;13.50;99.90
23591;DHT22;11973;52.098;7.582;2023-05-10T04:10:12;13.50;99.90
23591;DHT22;11973;52.098;7.582;2023-05-10T04:12:38;13.50;99.90
23591;DHT22;11973;52.098;7.582;2023-05-10T04:15:04;13.50;99.90
23591;DHT22;11973;52.098;7.582;2023-05-10T04:17:30;13.50;99.90
23591;DHT22;11973;52.098;7.582;2023-05-10T04:19:56;13.50;99.90
23591;DHT22;11973;52.098;7.582;2023-05-10T04:22:22;13.50;99.90
23591;DHT22;11973;52.098;7.582;2023-05-10T04:24:47;13.50;99.90
23591;DHT22;11973;52.098;7.582;2023-05-10T04:27:13;13.50;99.90
23591;DHT22;11973;52.098;7.582;2023-05-10T04:29:39;13.50;99.90
23591;DHT22;11973;52.098;7.582;2023-05-10T04:32:05;13.50;99.90
23591;DHT22;11973;52.098;7.582;2023-05-10T04:34:30;13.50;99.90
23591;DHT22;11973;52.098;7.582;2023-05-10T04:36:56;13.50;99.90
23591;DHT22;11973;52.098;7.582;2023-05-10T04:39:22;13.50;99.90
23591;DHT22;11973;52.098;7.582;2023-05-10T04:41:48;13.50;99.90
23591;DHT22;11973;52.098;7.582;2023-05-10T04:44:13;13.50;99.90
23591;DHT22;11973;52.098;7.582;2023-05-10T04:46:39;13.50;99.90
23591;DHT22;11973;52.098;7.582;2023-05-10T04:49:04;13.50;99.90
23591;DHT22;11973;52.098;7.582;2023-05-10T04:51:31;13.50;99.90
23591;DHT22;11973;52.098;7.582;2023-05-10T04:53:57;13.50;99.90
23591;DHT22;11973;52.098;7.582;2023-05-10T04:56:22;13.60;99.90
23591;DHT22;11973;52.098;7.582;2023-05-10T04:58:48;13.60;99.90
23591;DHT22;11973;52.098;7.582;2023-05-10T05:01:14;13.60;99.90
23591;DHT22;11973;52.098;7.582;2023-05-10T05:03:40;13.60;99.90
23591;DHT22;11973;52.098;7.582;2023-05-10T05:06:06;13.60;99.90
23591;DHT22;11973;52.098;7.582;2023-05-10T05:08:32;13.60;99.90
23591;DHT22;11973;52.098;7.582;2023-05-10T05:10:57;13.60;99.90
23591;DHT22;11973;52.098;7.582;2023-05-10T05:13:24;13.60;99.90
23591;DHT22;11973;52.098;7.582;2023-05-10T05:15:50;13.70;99.90
23591;DHT22;11973;52.098;7.582;2023-05-10T05:18:16;13.70;99.90
23591;DHT22;11973;52.098;7.582;2023-05-10T05:20:41;13.70;99.90
23591;DHT22;11973;52.098;7.582;2023-05-10T05:23:07;13.80;99.90
23591;DHT22;11973;52.098;7.582;2023-05-10T05:25:33;13.80;99.90
23591;DHT22;11973;52.098;7.582;2023-05-10T05:27:59;13.80;99.90
23591;DHT22;11973;52.098;7.582;2023-05-10T05:30:24;13.90;99.90
23591;DHT22;11973;52.098;7.582;2023-05-10T05:32:50;13.90;99.90
23591;DHT22;11973;52.098;7.582;2023-05-10T05:35:16;13.90;99.90
23591;DHT22;11973;52.098;7.582;2023-05-10T05:37:41;14.00;99.90
23591;DHT22;11973;52.098;7.582;2023-05-10T05:40:08;14.10;99.90
23591;DHT22;11973;52.098;7.582;2023-05-10T05:42:33;14.10;99.90
23591;DHT22;11973;52.098;7.582;2023-05-10T05:44:59;14.20;99.90
23591;DHT22;11973;52.098;7.582;2023-05-10T05:47:25;14.20;99.90
23591;DHT22;11973;52.098;7.582;2023-05-10T05:49:50;14.20;99.90
23591;DHT22;11973;52.098;7.582;2023-05-10T05:52:16;14.20;99.90
23591;DHT22;11973;52.098;7.582;2023-05-10T05:54:42;14.20;99.90
23591;DHT22;11973;52.098;7.582;2023-05-10T05:57:08;14.30;99.90
23591;DHT22;11973;52.098;7.582;2023-05-10T05:59:34;14.30;99.90
23591;DHT22;11973;52.098;7.582;2023-05-10T06:02:00;14.30;99.90
23591;DHT22;11973;52.098;7.582;2023-05-10T06:04:26;14.40;99.90
23591;DHT22;11973;52.098;7.582;2023-05-10T06:06:51;14.50;99.90
23591;DHT22;11973;52.098;7.582;2023-05-10T06:09:17;14.60;99.90
23591;DHT22;11973;52.098;7.582;2023-05-10T06:11:43;14.60;99.90
23591;DHT22;11973;52.098;7.582;2023-05-10T06:14:08;14.70;99.90
23591;DHT22;11973;52.098;7.582;2023-05-10T06:16:35;14.80;99.90
23591;DHT22;11973;52.098;7.582;2023-05-10T06:19:00;14.80;99.90
23591;DHT22;11973;52.098;7.582;2023-05-10T06:21:26;14.90;99.90
23591;DHT22;11973;52.098;7.582;2023-05-10T06:23:52;15.00;99.90
23591;DHT22;11973;52.098;7.582;2023-05-10T06:26:17;15.10;99.90
23591;DHT22;11973;52.098;7.582;2023-05-10T06:28:43;15.10;99.90
23591;DHT22;11973;52.098;7.582;2023-05-10T06:31:09;15.10;99.90
23591;DHT22;11973;52.098;7.582;2023-05-10T06:33:36;15.10;99.90
23591;DHT22;11973;52.098;7.582;2023-05-10T06:36:02;15.10;99.90
23591;DHT22;11973;52.098;7.582;2023-05-10T06:38:28;15.00;99.90
23591;DHT22;11973;52.098;7.582;2023-05-10T06:40:54;15.00;99.90
23591;DHT22;11973;52.098;7.582;2023-05-10T06:43:19;15.00;99.90
23591;DHT22;11973;52.098;7.582;2023-05-10T06:45:45;15.00;99.90
23591;DHT22;11973;52.098;7.582;2023-05-10T06:48:11;14.90;99.90
23591;DHT22;11973;52.098;7.582;2023-05-10T06:50:37;15.00;99.90
23591;DHT22;11973;52.098;7.582;2023-05-10T06:53:02;14.90;99.90
23591;DHT22;11973;52.098;7.582;2023-05-10T06:55:29;14.90;99.90
23591;DHT22;11973;52.098;7.582;2023-05-10T06:57:55;14.90;99.90
23591;DHT22;11973;52.098;7.582;2023-05-10T07:00:20;14.90;99.90
23591;DHT22;11973;52.098;7.582;2023-05-10T07:02:46;14.90;99.90
23591;DHT22;11973;52.098;7.582;2023-05-10T07:05:12;14.90;99.90
23591;DHT22;11973;52.098;7.582;2023-05-10T07:07:38;14.90;99.90
23591;DHT22;11973;52.098;7.582;2023-05-10T07:10:04;14.90;99.90
23591;DHT22;11973;52.098;7.582;2023-05-10T07:12:30;14.90;99.90
23591;DHT22;11973;52.098;7.582;2023-05-10T07:14:56;14.90;99.90
23591;DHT22;11973;52.098;7.582;2023-05-10T07:17:22;14.90;99.90
23591;DHT22;11973;52.098;7.582;2023-05-10T07:19:47;15.00;99.90
23591;DHT22;11973;52.098;7.582;2023-05-10T07:22:14;15.00;99.90
23591;DHT22;11973;52.098;7.582;2023-05-10T07:24:41;15.10;99.90
23591;DHT22;11973;52.098;7.582;2023-05-10T07:27:06;15.10;99.90
23591;DHT22;11973;52.098;7.582;2023-05-10T07:29:32;15.20;99.90
23591;DHT22;11973;52.098;7.582;2023-05-10T07:31:58;15.30;99.90
23591;DHT22;11973;52.098;7.582;2023-05-10T07:34:24;15.20;99.90
23591;DHT22;11973;52.098;7.582;2023-05-10T07:36:49;15.30;99.90
23591;DHT22;11973;52.098;7.582;2023-05-10T07:39:15;15.40;99.90
23591;DHT22;11973;52.098;7.582;2023-05-10T07:41:42;15.40;99.90
23591;DHT22;11973;52.098;7.582;2023-05-10T07:44:07;15.50;99.90
23591;DHT22;11973;52.098;7.582;2023-05-10T07:46:33;15.60;99.90
23591;DHT22;11973;52.098;7.582;2023-05-10T07:48:59;15.70;99.90
23591;DHT22;11973;52.098;7.582;2023-05-10T07:51:24;15.70;99.90
23591;DHT22;11973;52.098;7.582;2023-05-10T07:53:50;15.80;99.90
23591;DHT22;11973;52.098;7.582;2023-05-10T07:56:22;15.80;99.90
23591;DHT22;11973;52.098;7.582;2023-05-10T07:58:48;15.80;99.90
23591;DHT22;11973;52.098;7.582;2023-05-10T08:01:14;15.90;99.90
23591;DHT22;11973;52.098;7.582;2023-05-10T08:03:40;16.00;99.90
23591;DHT22;11973;52.098;7.582;2023-05-10T08:06:05;16.00;99.90
23591;DHT22;11973;52.098;7.582;2023-05-10T08:08:31;16.10;99.90
23591;DHT22;11973;52.098;7.582;2023-05-10T08:10:57;16.10;99.90
23591;DHT22;11973;52.098;7.582;2023-05-10T08:13:22;16.10;99.90
23591;DHT22;11973;52.098;7.582;2023-05-10T08:15:48;16.20;99.90
23591;DHT22;11973;52.098;7.582;2023-05-10T08:18:14;16.20;99.90
23591;DHT22;11973;52.098;7.582;2023-05-10T08:20:40;16.30;99.90
23591;DHT22;11973;52.098;7.582;2023-05-10T08:23:05;16.30;99.90
23591;DHT22;11973;52.098;7.582;2023-05-10T08:25:31;16.40;99.90
23591;DHT22;11973;52.098;7.582;2023-05-10T08:27:57;16.50;99.90
23591;DHT22;11973;52.098;7.582;2023-05-10T08:30:23;16.60;99.90
23591;DHT22;11973;52.098;7.582;2023-05-10T08:32:48;16.70;99.90
23591;DHT22;11973;52.098;7.582;2023-05-10T08:35:16;16.80;99.90
23591;DHT22;11973;52.098;7.582;2023-05-10T08:37:41;16.80;99.90
23591;DHT22;11973;52.098;7.582;2023-05-10T08:40:08;16.90;99.90
23591;DHT22;11973;52.098;7.582;2023-05-10T08:42:40;17.00;99.90
23591;DHT22;11973;52.098;7.582;2023-05-10T08:45:07;17.00;99.90
23591;DHT22;11973;52.098;7.582;2023-05-10T08:47:36;17.10;99.90
23591;DHT22;11973;52.098;7.582;2023-05-10T08:50:03;17.10;99.90
23591;DHT22;11973;52.098;7.582;2023-05-10T08:52:30;17.10;99.90
23591;DHT22;11973;52.098;7.582;2023-05-10T08:54:58;17.20;99.90
23591;DHT22;11973;52.098;7.582;2023-05-10T08:57:23;17.20;99.90
23591;DHT22;11973;52.098;7.582;2023-05-10T08:59:50;17.30;99.90
23591;DHT22;11973;52.098;7.582;2023-05-10T09:02:16;17.30;99.90
23591;DHT22;11973;52.098;7.582;2023-05-10T09:04:43;17.30;99.90
23591;DHT22;11973;52.098;7.582;2023-05-10T09:07:10;17.30;99.90
23591;DHT22;11973;52.098;7.582;2023-05-10T09:09:36;17.30;99.90
23591;DHT22;11973;52.098;7.582;2023-05-10T09:12:02;17.20;99.90
23591;DHT22;11973;52.098;7.582;2023-05-10T09:14:29;17.20;99.90
23591;DHT22;11973;52.098;7.582;2023-05-10T09:16:56;17.10;99.90
23591;DHT22;11973;52.098;7.582;2023-05-10T09:19:21;17.10;99.90
23591;DHT22;11973;52.098;7.582;2023-05-10T09:21:48;17.10;99.90
23591;DHT22;11973;52.098;7.582;2023-05-10T09:24:14;17.10;99.90
23591;DHT22;11973;52.098;7.582;2023-05-10T09:26:47;17.20;99.90
23591;DHT22;11973;52.098;7.582;2023-05-10T09:29:16;17.20;99.90
23591;DHT22;11973;52.098;7.582;2023-05-10T09:31:48;17.20;99.90
23591;DHT22;11973;52.098;7.582;2023-05-10T09:34:20;17.30;99.90
23591;DHT22;11973;52.098;7.582;2023-05-10T09:36:57;17.40;99.90
23591;DHT22;11973;52.098;7.582;2023-05-10T09:39:30;17.50;99.90
23591;DHT22;11973;52.098;7.582;2023-05-10T09:41:58;17.60;99.90
23591;DHT22;11973;52.098;7.582;2023-05-10T09:44:25;17.70;99.90
23591;DHT22;11973;52.098;7.582;2023-05-10T09:46:51;17.80;99.90
23591;DHT22;11973;52.098;7.582;2023-05-10T09:49:19;17.90;99.90
23591;DHT22;11973;52.098;7.582;2023-05-10T09:51:46;18.00;99.90
23591;DHT22;11973;52.098;7.582;2023-05-10T09:54:16;18.00;99.90
23591;DHT22;11973;52.098;7.582;2023-05-10T09:56:42;17.90;99.90
23591;DHT22;11973;52.098;7.582;2023-05-10T09:59:11;17.90;99.90
23591;DHT22;11973;52.098;7.582;2023-05-10T10:01:37;17.90;99.90
23591;DHT22;11973;52.098;7.582;2023-05-10T10:04:08;17.90;99.90
23591;DHT22;11973;52.098;7.582;2023-05-10T10:06:38;17.90;99.90
23591;DHT22;11973;52.098;7.582;2023-05-10T10:09:05;17.90;99.90
23591;DHT22;11973;52.098;7.582;2023-05-10T10:11:31;17.90;99.90
23591;DHT22;11973;52.098;7.582;2023-05-10T10:13:58;17.90;99.90
23591;DHT22;11973;52.098;7.582;2023-05-10T10:16:24;17.90;99.90
23591;DHT22;11973;52.098;7.582;2023-05-10T10:18:50;18.00;99.90
23591;DHT22;11973;52.098;7.582;2023-05-10T10:21:16;18.00;99.90
23591;DHT22;11973;52.098;7.582;2023-05-10T10:23:42;18.00;99.90
23591;DHT22;11973;52.098;7.582;2023-05-10T10:26:10;18.00;99.90
23591;DHT22;11973;52.098;7.582;2023-05-10T10:29:07;18.10;99.90
23591;DHT22;11973;52.098;7.582;2023-05-10T10:31:47;18.10;99.90
23591;DHT22;11973;52.098;7.582;2023-05-10T10:34:26;18.10;99.90
23591;DHT22;11973;52.098;7.582;2023-05-10T10:36:56;18.20;99.90
23591;DHT22;11973;52.098;7.582;2023-05-10T10:39:26;18.20;99.90
23591;DHT22;11973;52.098;7.582;2023-05-10T10:41:53;18.30;99.90
23591;DHT22;11973;52.098;7.582;2023-05-10T10:52:37;18.60;99.90
23591;DHT22;11973;52.098;7.582;2023-05-10T10:55:08;18.60;99.90
23591;DHT22;11973;52.098;7.582;2023-05-10T11:10:36;19.20;99.90
23591;DHT22;11973;52.098;7.582;2023-05-10T11:13:04;19.20;99.90
23591;DHT22;11973;52.098;7.582;2023-05-10T11:15:37;19.30;99.90
23591;DHT22;11973;52.098;7.582;2023-05-10T11:18:39;19.30;99.90
23591;DHT22;11973;52.098;7.582;2023-05-10T11:21:05;19.30;99.90
23591;DHT22;11973;52.098;7.582;2023-05-10T11:26:09;19.20;99.90
23591;DHT22;11973;52.098;7.582;2023-05-10T11:28:42;19.20;99.90
23591;DHT22;11973;52.098;7.582;2023-05-10T11:31:07;19.20;99.90
23591;DHT22;11973;52.098;7.582;2023-05-10T11:33:43;19.20;99.90
23591;DHT22;11973;52.098;7.582;2023-05-10T11:36:17;19.20;99.90
23591;DHT22;11973;52.098;7.582;2023-05-10T11:38:43;19.20;99.90
23591;DHT22;11973;52.098;7.582;2023-05-10T11:41:09;19.20;99.90
23591;DHT22;11973;52.098;7.582;2023-05-10T11:43:38;19.20;99.90
23591;DHT22;11973;52.098;7.582;2023-05-10T11:46:10;19.20;99.90
23591;DHT22;11973;52.098;7.582;2023-05-10T11:48:37;19.20;99.90
23591;DHT22;11973;52.098;7.582;2023-05-10T11:51:03;19.20;99.90
23591;DHT22;11973;52.098;7.582;2023-05-10T11:53:31;19.10;99.90
23591;DHT22;11973;52.098;7.582;2023-05-10T11:56:07;19.20;99.90
23591;DHT22;11973;52.098;7.582;2023-05-10T11:58:34;19.30;99.90
23591;DHT22;11973;52.098;7.582;2023-05-10T12:01:00;19.40;99.90
23591;DHT22;11973;52.098;7.582;2023-05-10T12:03:27;19.30;99.90
23591;DHT22;11973;52.098;7.582;2023-05-10T12:05:54;19.40;99.90
23591;DHT22;11973;52.098;7.582;2023-05-10T12:08:25;19.40;99.90
23591;DHT22;11973;52.098;7.582;2023-05-10T12:10:51;19.50;99.90
23591;DHT22;11973;52.098;7.582;2023-05-10T12:13:19;19.60;99.90
23591;DHT22;11973;52.098;7.582;2023-05-10T12:15:45;19.80;99.90
23591;DHT22;11973;52.098;7.582;2023-05-10T12:18:12;20.00;99.90
23591;DHT22;11973;52.098;7.582;2023-05-10T12:20:39;20.20;99.90
23591;DHT22;11973;52.098;7.582;2023-05-10T12:23:07;20.30;99.90
23591;DHT22;11973;52.098;7.582;2023-05-10T12:25:34;20.40;99.90
23591;DHT22;11973;52.098;7.582;2023-05-10T12:28:03;20.40;99.90
23591;DHT22;11973;52.098;7.582;2023-05-10T12:30:31;20.30;99.90
23591;DHT22;11973;52.098;7.582;2023-05-10T12:33:08;20.30;99.90
23591;DHT22;11973;52.098;7.582;2023-05-10T12:35:45;20.20;99.90
23591;DHT22;11973;52.098;7.582;2023-05-10T12:38:30;20.10;99.90
23591;DHT22;11973;52.098;7.582;2023-05-10T12:41:02;20.10;99.90
23591;DHT22;11973;52.098;7.582;2023-05-10T12:43:28;20.00;99.90
23591;DHT22;11973;52.098;7.582;2023-05-10T12:45:54;19.90;99.90
23591;DHT22;11973;52.098;7.582;2023-05-10T12:48:20;19.90;99.90
23591;DHT22;11973;52.098;7.582;2023-05-10T12:50:46;19.90;99.90
23591;DHT22;11973;52.098;7.582;2023-05-10T12:53:16;20.00;99.90
23591;DHT22;11973;52.098;7.582;2023-05-10T12:55:42;20.10;99.90
23591;DHT22;11973;52.098;7.582;2023-05-10T12:58:08;20.20;99.90
23591;DHT22;11973;52.098;7.582;2023-05-10T13:00:34;20.30;99.90
23591;DHT22;11973;52.098;7.582;2023-05-10T13:03:00;20.40;99.90
23591;DHT22;11973;52.098;7.582;2023-05-10T13:05:25;20.50;99.90
23591;DHT22;11973;52.098;7.582;2023-05-10T13:07:51;20.50;99.90
23591;DHT22;11973;52.098;7.582;2023-05-10T13:10:17;20.50;99.90
23591;DHT22;11973;52.098;7.582;2023-05-10T13:12:43;20.40;99.90
23591;DHT22;11973;52.098;7.582;2023-05-10T13:15:08;20.30;99.90
23591;DHT22;11973;52.098;7.582;2023-05-10T13:17:34;20.10;99.90
23591;DHT22;11973;52.098;7.582;2023-05-10T13:20:00;20.00;99.90
23591;DHT22;11973;52.098;7.582;2023-05-10T13:22:26;19.90;99.90
23591;DHT22;11973;52.098;7.582;2023-05-10T13:24:51;19.80;99.90
23591;DHT22;11973;52.098;7.582;2023-05-10T13:27:17;19.90;99.90
23591;DHT22;11973;52.098;7.582;2023-05-10T13:29:42;20.00;99.90
23591;DHT22;11973;52.098;7.582;2023-05-10T13:32:08;20.30;99.90
23591;DHT22;11973;52.098;7.582;2023-05-10T13:34:34;20.40;99.90
23591;DHT22;11973;52.098;7.582;2023-05-10T13:37:01;20.60;99.90
23591;DHT22;11973;52.098;7.582;2023-05-10T13:39:27;20.80;99.90
23591;DHT22;11973;52.098;7.582;2023-05-10T13:41:52;20.90;99.90
23591;DHT22;11973;52.098;7.582;2023-05-10T13:44:20;21.10;99.90
23591;DHT22;11973;52.098;7.582;2023-05-10T13:46:46;21.20;99.90
23591;DHT22;11973;52.098;7.582;2023-05-10T13:49:11;21.30;99.90
23591;DHT22;11973;52.098;7.582;2023-05-10T13:51:37;21.40;99.90
23591;DHT22;11973;52.098;7.582;2023-05-10T13:54:03;21.50;99.90
23591;DHT22;11973;52.098;7.582;2023-05-10T13:56:29;21.60;99.90
23591;DHT22;11973;52.098;7.582;2023-05-10T13:58:56;21.70;99.90
23591;DHT22;11973;52.098;7.582;2023-05-10T14:01:22;21.80;99.90
23591;DHT22;11973;52.098;7.582;2023-05-10T14:03:48;22.00;99.90
23591;DHT22;11973;52.098;7.582;2023-05-10T14:06:14;22.20;99.90
23591;DHT22;11973;52.098;7.582;2023-05-10T14:08:40;22.50;99.90
23591;DHT22;11973;52.098;7.582;2023-05-10T14:11:05;22.80;99.90
23591;DHT22;11973;52.098;7.582;2023-05-10T14:13:31;23.10;99.90
23591;DHT22;11973;52.098;7.582;2023-05-10T14:15:57;23.40;99.90
23591;DHT22;11973;52.098;7.582;2023-05-10T14:18:24;23.70;99.90
23591;DHT22;11973;52.098;7.582;2023-05-10T14:20:49;23.90;99.90
23591;DHT22;11973;52.098;7.582;2023-05-10T14:23:15;24.20;99.90
23591;DHT22;11973;52.098;7.582;2023-05-10T14:25:41;24.50;99.90
23591;DHT22;11973;52.098;7.582;2023-05-10T14:28:07;24.70;99.90
23591;DHT22;11973;52.098;7.582;2023-05-10T14:30:32;24.80;99.90
23591;DHT22;11973;52.098;7.582;2023-05-10T14:33:01;24.90;99.90
23591;DHT22;11973;52.098;7.582;2023-05-10T14:35:27;25.00;99.90
23591;DHT22;11973;52.098;7.582;2023-05-10T14:37:53;25.20;99.90
23591;DHT22;11973;52.098;7.582;2023-05-10T14:40:19;25.30;99.90
23591;DHT22;11973;52.098;7.582;2023-05-10T14:42:45;25.30;99.90
23591;DHT22;11973;52.098;7.582;2023-05-10T14:45:10;25.00;99.90
23591;DHT22;11973;52.098;7.582;2023-05-10T14:47:41;24.70;99.90
23591;DHT22;11973;52.098;7.582;2023-05-10T14:50:15;24.40;99.90
23591;DHT22;11973;52.098;7.582;2023-05-10T14:52:45;24.10;99.90
23591;DHT22;11973;52.098;7.582;2023-05-10T14:55:10;24.00;99.90
23591;DHT22;11973;52.098;7.582;2023-05-10T14:57:36;24.00;99.90
23591;DHT22;11973;52.098;7.582;2023-05-10T15:00:09;24.20;99.90
23591;DHT22;11973;52.098;7.582;2023-05-10T15:02:35;24.60;99.90
23591;DHT22;11973;52.098;7.582;2023-05-10T15:05:12;24.90;99.90
23591;DHT22;11973;52.098;7.582;2023-05-10T15:07:49;25.10;99.90
23591;DHT22;11973;52.098;7.582;2023-05-10T15:10:15;25.40;99.90
23591;DHT22;11973;52.098;7.582;2023-05-10T15:12:47;25.50;99.90
23591;DHT22;11973;52.098;7.582;2023-05-10T15:15:13;25.50;99.90
23591;DHT22;11973;52.098;7.582;2023-05-10T15:17:39;25.40;99.90
23591;DHT22;11973;52.098;7.582;2023-05-10T15:20:06;25.50;99.90
23591;DHT22;11973;52.098;7.582;2023-05-10T15:22:44;25.80;99.90
23591;DHT22;11973;52.098;7.582;2023-05-10T15:25:16;26.20;99.90
23591;DHT22;11973;52.098;7.582;2023-05-10T15:27:41;26.60;99.80
23591;DHT22;11973;52.098;7.582;2023-05-10T15:30:10;26.90;99.50
23591;DHT22;11973;52.098;7.582;2023-05-10T15:32:36;27.10;98.80
23591;DHT22;11973;52.098;7.582;2023-05-10T15:35:05;27.10;98.40
23591;DHT22;11973;52.098;7.582;2023-05-10T15:37:34;27.20;98.10
23591;DHT22;11973;52.098;7.582;2023-05-10T15:40:00;27.40;97.70
23591;DHT22;11973;52.098;7.582;2023-05-10T15:42:35;27.50;97.10
23591;DHT22;11973;52.098;7.582;2023-05-10T15:45:03;27.70;96.80
23591;DHT22;11973;52.098;7.582;2023-05-10T15:47:37;27.90;96.70
23591;DHT22;11973;52.098;7.582;2023-05-10T15:50:14;28.00;95.50
23591;DHT22;11973;52.098;7.582;2023-05-10T15:52:53;27.90;95.60
23591;DHT22;11973;52.098;7.582;2023-05-10T15:55:26;28.00;95.20
23591;DHT22;11973;52.098;7.582;2023-05-10T15:57:52;28.10;95.10
23591;DHT22;11973;52.098;7.582;2023-05-10T16:00:26;28.30;95.00
23591;DHT22;11973;52.098;7.582;2023-05-10T16:02:58;28.40;94.70
23591;DHT22;11973;52.098;7.582;2023-05-10T16:05:27;28.70;94.90
23591;DHT22;11973;52.098;7.582;2023-05-10T16:08:00;28.80;94.00
23591;DHT22;11973;52.098;7.582;2023-05-10T16:10:36;28.50;94.00
23591;DHT22;11973;52.098;7.582;2023-05-10T16:13:07;28.10;93.30
23591;DHT22;11973;52.098;7.582;2023-05-10T16:15:36;27.60;93.50
23591;DHT22;11973;52.098;7.582;2023-05-10T16:18:05;27.20;93.60
23591;DHT22;11973;52.098;7.582;2023-05-10T16:20:41;26.90;93.40
23591;DHT22;11973;52.098;7.582;2023-05-10T16:23:10;27.00;92.90
23591;DHT22;11973;52.098;7.582;2023-05-10T16:25:43;27.40;93.40
23591;DHT22;11973;52.098;7.582;2023-05-10T16:28:11;27.90;93.30
23591;DHT22;11973;52.098;7.582;2023-05-10T16:30:43;28.50;92.90
23591;DHT22;11973;52.098;7.582;2023-05-10T16:33:17;28.90;92.50
23591;DHT22;11973;52.098;7.582;2023-05-10T16:35:54;28.80;92.00
23591;DHT22;11973;52.098;7.582;2023-05-10T16:38:23;28.40;91.60
23591;DHT22;11973;52.098;7.582;2023-05-10T16:40:51;28.20;91.40
23591;DHT22;11973;52.098;7.582;2023-05-10T16:43:17;28.10;91.30
23591;DHT22;11973;52.098;7.582;2023-05-10T16:45:43;27.90;91.40
23591;DHT22;11973;52.098;7.582;2023-05-10T16:48:09;27.80;91.10
23591;DHT22;11973;52.098;7.582;2023-05-10T16:50:35;27.70;91.10
23591;DHT22;11973;52.098;7.582;2023-05-10T16:53:00;27.40;91.70
23591;DHT22;11973;52.098;7.582;2023-05-10T16:55:26;27.00;92.40
23591;DHT22;11973;52.098;7.582;2023-05-10T16:57:52;26.60;91.80
23591;DHT22;11973;52.098;7.582;2023-05-10T17:00:24;26.30;91.90
23591;DHT22;11973;52.098;7.582;2023-05-10T17:02:50;25.80;91.60
23591;DHT22;11973;52.098;7.582;2023-05-10T17:05:16;25.40;92.10
23591;DHT22;11973;52.098;7.582;2023-05-10T17:07:43;25.00;92.20
23591;DHT22;11973;52.098;7.582;2023-05-10T17:10:14;24.70;92.50
23591;DHT22;11973;52.098;7.582;2023-05-10T17:12:42;24.40;93.00
23591;DHT22;11973;52.098;7.582;2023-05-10T17:15:09;24.10;92.60
23591;DHT22;11973;52.098;7.582;2023-05-10T17:17:36;23.90;92.80
23591;DHT22;11973;52.098;7.582;2023-05-10T17:20:02;23.70;92.80
23591;DHT22;11973;52.098;7.582;2023-05-10T17:22:29;23.50;92.90
23591;DHT22;11973;52.098;7.582;2023-05-10T17:24:55;23.20;92.90
23591;DHT22;11973;52.098;7.582;2023-05-10T17:27:21;23.10;93.00
23591;DHT22;11973;52.098;7.582;2023-05-10T17:29:47;22.90;93.00
23591;DHT22;11973;52.098;7.582;2023-05-10T17:32:13;22.80;93.00
23591;DHT22;11973;52.098;7.582;2023-05-10T17:34:40;22.50;92.90
23591;DHT22;11973;52.098;7.582;2023-05-10T17:37:08;22.30;93.00
23591;DHT22;11973;52.098;7.582;2023-05-10T17:39:33;22.10;92.80
23591;DHT22;11973;52.098;7.582;2023-05-10T17:41:59;21.90;93.00
23591;DHT22;11973;52.098;7.582;2023-05-10T17:44:25;21.70;92.90
23591;DHT22;11973;52.098;7.582;2023-05-10T17:46:51;21.60;93.00
23591;DHT22;11973;52.098;7.582;2023-05-10T17:49:17;21.40;92.90
23591;DHT22;11973;52.098;7.582;2023-05-10T17:51:43;21.30;92.80
23591;DHT22;11973;52.098;7.582;2023-05-10T17:54:09;21.20;92.70
23591;DHT22;11973;52.098;7.582;2023-05-10T17:56:34;21.10;92.70
23591;DHT22;11973;52.098;7.582;2023-05-10T17:59:01;21.00;92.80
23591;DHT22;11973;52.098;7.582;2023-05-10T18:01:27;20.80;92.80
23591;DHT22;11973;52.098;7.582;2023-05-10T18:03:53;20.70;92.90
23591;DHT22;11973;52.098;7.582;2023-05-10T18:06:18;20.60;92.80
23591;DHT22;11973;52.098;7.582;2023-05-10T18:08:44;20.50;92.90
23591;DHT22;11973;52.098;7.582;2023-05-10T18:11:10;20.40;92.80
23591;DHT22;11973;52.098;7.582;2023-05-10T18:13:36;20.30;92.80
23591;DHT22;11973;52.098;7.582;2023-05-10T18:16:01;20.20;92.90
23591;DHT22;11973;52.098;7.582;2023-05-10T18:18:29;20.00;92.90
23591;DHT22;11973;52.098;7.582;2023-05-10T18:20:55;19.90;93.00
23591;DHT22;11973;52.098;7.582;2023-05-10T18:23:22;19.80;92.90
23591;DHT22;11973;52.098;7.582;2023-05-10T18:25:49;19.70;93.00
23591;DHT22;11973;52.098;7.582;2023-05-10T18:28:15;19.60;93.00
23591;DHT22;11973;52.098;7.582;2023-05-10T18:30:41;19.50;93.00
23591;DHT22;11973;52.098;7.582;2023-05-10T18:33:06;19.40;93.10
23591;DHT22;11973;52.098;7.582;2023-05-10T18:35:33;19.30;93.10
23591;DHT22;11973;52.098;7.582;2023-05-10T18:38:02;19.20;93.10
23591;DHT22;11973;52.098;7.582;2023-05-10T18:40:27;19.10;93.10
23591;DHT22;11973;52.098;7.582;2023-05-10T18:42:56;19.10;93.30
23591;DHT22;11973;52.098;7.582;2023-05-10T18:45:22;19.00;93.30
23591;DHT22;11973;52.098;7.582;2023-05-10T18:47:48;19.00;93.40
23591;DHT22;11973;52.098;7.582;2023-05-10T18:50:14;18.90;93.40
23591;DHT22;11973;52.098;7.582;2023-05-10T18:52:41;18.90;93.50
23591;DHT22;11973;52.098;7.582;2023-05-10T18:55:08;18.90;93.60
23591;DHT22;11973;52.098;7.582;2023-05-10T18:57:34;18.80;93.60
23591;DHT22;11973;52.098;7.582;2023-05-10T19:00:10;18.70;93.60
23591;DHT22;11973;52.098;7.582;2023-05-10T19:02:37;18.70;93.80
23591;DHT22;11973;52.098;7.582;2023-05-10T19:05:03;18.60;93.80
23591;DHT22;11973;52.098;7.582;2023-05-10T19:07:29;18.60;93.90
23591;DHT22;11973;52.098;7.582;2023-05-10T19:09:54;18.60;94.00
23591;DHT22;11973;52.098;7.582;2023-05-10T19:12:20;18.50;93.90
23591;DHT22;11973;52.098;7.582;2023-05-10T19:14:46;18.50;94.00
23591;DHT22;11973;52.098;7.582;2023-05-10T19:17:12;18.40;94.10
23591;DHT22;11973;52.098;7.582;2023-05-10T19:19:37;18.40;94.10
23591;DHT22;11973;52.098;7.582;2023-05-10T19:22:03;18.30;94.10
23591;DHT22;11973;52.098;7.582;2023-05-10T19:24:29;18.20;94.30
23591;DHT22;11973;52.098;7.582;2023-05-10T19:26:54;18.20;94.30
23591;DHT22;11973;52.098;7.582;2023-05-10T19:29:22;18.10;94.40
23591;DHT22;11973;52.098;7.582;2023-05-10T19:31:48;18.10;94.40
23591;DHT22;11973;52.098;7.582;2023-05-10T19:34:16;18.00;94.40
23591;DHT22;11973;52.098;7.582;2023-05-10T19:36:43;18.00;94.50
23591;DHT22;11973;52.098;7.582;2023-05-10T19:39:09;17.90;94.50